sensor_id;sensor_type;location;lat;lon;timestamp;pressure;altitude;pressure_sealevel;temperature;humidity
7075;BME280;3578;51.568;6.932;2022-12-17T00:02:07;52707.00;;;-144.14;100.00
7075;BME280;3578;51.568;6.932;2022-12-17T00:04:52;52717.03;;;-144.14;100.00
7075;BME280;3578;51.568;6.932;2022-12-17T00:07:33;52678.94;;;-144.14;100.00
7075;BME280;3578;51.568;6.932;2022-12-17T00:10:18;52705.00;;;-144.14;100.00
7075;BME280;3578;51.568;6.932;2022-12-17T00:13:03;52692.97;;;-144.14;100.00
7075;BME280;3578;51.568;6.932;2022-12-17T00:15:50;52684.97;;;-144.14;100.00
7075;BME280;3578;51.568;6.932;2022-12-17T00:18:36;52697.00;;;-144.14;100.00
7075;BME280;3578;51.568;6.932;2022-12-17T00:21:21;52674.94;;;-144.14;100.00
7075;BME280;3578;51.568;6.932;2022-12-17T00:24:06;52690.97;;;-144.14;100.00
7075;BME280;3578;51.568;6.932;2022-12-17T00:26:50;52684.97;;;-144.14;100.00
7075;BME280;3578;51.568;6.932;2022-12-17T00:29:35;52678.94;;;-144.14;100.00
7075;BME280;3578;51.568;6.932;2022-12-17T00:32:20;52656.91;;;-144.14;100.00
7075;BME280;3578;51.568;6.932;2022-12-17T00:35:07;52650.91;;;-144.14;100.00
7075;BME280;3578;51.568;6.932;2022-12-17T00:37:51;52664.94;;;-144.14;100.00
7075;BME280;3578;51.568;6.932;2022-12-17T00:40:36;52672.94;;;-144.14;100.00
7075;BME280;3578;51.568;6.932;2022-12-17T00:43:20;52664.94;;;-144.14;100.00
7075;BME280;3578;51.568;6.932;2022-12-17T00:46:05;52680.97;;;-144.14;100.00
7075;BME280;3578;51.568;6.932;2022-12-17T00:48:50;52672.94;;;-144.14;100.00
7075;BME280;3578;51.568;6.932;2022-12-17T00:51:36;52666.94;;;-144.14;100.00
7075;BME280;3578;51.568;6.932;2022-12-17T00:54:20;52686.97;;;-144.14;100.00
7075;BME280;3578;51.568;6.932;2022-12-17T00:57:05;52684.97;;;-144.14;100.00
7075;BME280;3578;51.568;6.932;2022-12-17T00:59:50;52656.91;;;-144.14;100.00
7075;BME280;3578;51.568;6.932;2022-12-17T01:02:34;52648.91;;;-144.14;100.00
7075;BME280;3578;51.568;6.932;2022-12-17T01:05:19;52670.94;;;-144.14;100.00
7075;BME280;3578;51.568;6.932;2022-12-17T01:08:11;52652.91;;;-144.14;100.00
7075;BME280;3578;51.568;6.932;2022-12-17T01:10:58;52705.00;;;-144.14;100.00
7075;BME280;3578;51.568;6.932;2022-12-17T01:13:43;52664.94;;;-144.14;100.00
7075;BME280;3578;51.568;6.932;2022-12-17T01:16:28;52678.94;;;-144.14;100.00
7075;BME280;3578;51.568;6.932;2022-12-17T01:19:12;52686.97;;;-144.14;100.00
7075;BME280;3578;51.568;6.932;2022-12-17T01:21:57;52672.94;;;-144.14;100.00
7075;BME280;3578;51.568;6.932;2022-12-17T01:24:43;52672.94;;;-144.14;100.00
7075;BME280;3578;51.568;6.932;2022-12-17T01:27:27;52719.03;;;-144.14;100.00
7075;BME280;3578;51.568;6.932;2022-12-17T01:30:12;52699.00;;;-144.14;100.00
7075;BME280;3578;51.568;6.932;2022-12-17T01:33:01;52697.00;;;-144.14;100.00
7075;BME280;3578;51.568;6.932;2022-12-17T01:35:45;52717.03;;;-144.14;100.00
7075;BME280;3578;51.568;6.932;2022-12-17T01:38:30;52707.00;;;-144.14;100.00
7075;BME280;3578;51.568;6.932;2022-12-17T01:41:16;52703.00;;;-144.14;100.00
7075;BME280;3578;51.568;6.932;2022-12-17T01:44:42;52699.00;;;-144.14;100.00
7075;BME280;3578;51.568;6.932;2022-12-17T01:47:30;52709.00;;;-144.14;100.00
7075;BME280;3578;51.568;6.932;2022-12-17T01:50:17;52688.97;;;-144.14;100.00
7075;BME280;3578;51.568;6.932;2022-12-17T01:53:02;52668.94;;;-144.14;100.00
7075;BME280;3578;51.568;6.932;2022-12-17T01:55:48;52697.00;;;-144.14;100.00
7075;BME280;3578;51.568;6.932;2022-12-17T01:58:34;52692.97;;;-144.14;100.00
7075;BME280;3578;51.568;6.932;2022-12-17T02:01:19;52743.06;;;-144.14;100.00
7075;BME280;3578;51.568;6.932;2022-12-17T02:04:05;52755.09;;;-144.14;100.00
7075;BME280;3578;51.568;6.932;2022-12-17T02:07:05;52725.03;;;-144.14;100.00
7075;BME280;3578;51.568;6.932;2022-12-17T02:10:03;52721.03;;;-144.14;100.00
7075;BME280;3578;51.568;6.932;2022-12-17T02:12:55;52705.00;;;-144.14;100.00
7075;BME280;3578;51.568;6.932;2022-12-17T02:15:48;52711.00;;;-144.14;100.00
7075;BME280;3578;51.568;6.932;2022-12-17T02:18:39;52747.09;;;-144.14;100.00
7075;BME280;3578;51.568;6.932;2022-12-17T02:21:28;52737.06;;;-144.14;100.00
7075;BME280;3578;51.568;6.932;2022-12-17T02:24:24;52727.03;;;-144.14;100.00
7075;BME280;3578;51.568;6.932;2022-12-17T02:27:14;52688.97;;;-144.14;100.00
7075;BME280;3578;51.568;6.932;2022-12-17T02:30:04;52705.00;;;-144.14;100.00
7075;BME280;3578;51.568;6.932;2022-12-17T02:32:50;52725.03;;;-144.14;100.00
7075;BME280;3578;51.568;6.932;2022-12-17T02:35:39;52721.03;;;-144.14;100.00
7075;BME280;3578;51.568;6.932;2022-12-17T02:38:26;52785.16;;;-144.14;100.00
7075;BME280;3578;51.568;6.932;2022-12-17T02:41:14;52741.06;;;-144.14;100.00
7075;BME280;3578;51.568;6.932;2022-12-17T02:44:02;52713.00;;;-144.14;100.00
7075;BME280;3578;51.568;6.932;2022-12-17T02:46:48;52731.06;;;-144.14;100.00
7075;BME280;3578;51.568;6.932;2022-12-17T02:49:33;52725.03;;;-144.14;100.00
7075;BME280;3578;51.568;6.932;2022-12-17T02:52:18;52701.00;;;-144.14;100.00
7075;BME280;3578;51.568;6.932;2022-12-17T02:55:05;52761.09;;;-144.14;100.00
7075;BME280;3578;51.568;6.932;2022-12-17T02:57:50;52735.06;;;-144.14;100.00
7075;BME280;3578;51.568;6.932;2022-12-17T03:00:36;52729.03;;;-144.14;100.00
7075;BME280;3578;51.568;6.932;2022-12-17T03:03:20;52741.06;;;-144.14;100.00
7075;BME280;3578;51.568;6.932;2022-12-17T03:06:05;52711.00;;;-144.14;100.00
7075;BME280;3578;51.568;6.932;2022-12-17T03:09:01;52737.06;;;-144.14;100.00
7075;BME280;3578;51.568;6.932;2022-12-17T03:11:46;52729.03;;;-144.14;100.00
7075;BME280;3578;51.568;6.932;2022-12-17T03:14:30;52745.06;;;-144.14;100.00
7075;BME280;3578;51.568;6.932;2022-12-17T03:17:16;52692.97;;;-144.14;100.00
7075;BME280;3578;51.568;6.932;2022-12-17T03:20:01;52753.09;;;-144.14;100.00
7075;BME280;3578;51.568;6.932;2022-12-17T03:22:45;52765.13;;;-144.14;100.00
7075;BME280;3578;51.568;6.932;2022-12-17T03:25:30;52751.09;;;-144.14;100.00
7075;BME280;3578;51.568;6.932;2022-12-17T03:28:14;52749.09;;;-144.14;100.00
7075;BME280;3578;51.568;6.932;2022-12-17T03:30:59;52785.16;;;-144.14;100.00
7075;BME280;3578;51.568;6.932;2022-12-17T03:33:45;52703.00;;;-144.14;100.00
7075;BME280;3578;51.568;6.932;2022-12-17T03:36:30;52763.13;;;-144.14;100.00
7075;BME280;3578;51.568;6.932;2022-12-17T03:39:15;52719.03;;;-144.14;100.00
7075;BME280;3578;51.568;6.932;2022-12-17T03:41:59;52727.03;;;-144.14;100.00
7075;BME280;3578;51.568;6.932;2022-12-17T03:44:44;52769.13;;;-144.14;100.00
7075;BME280;3578;51.568;6.932;2022-12-17T03:47:28;52727.03;;;-144.14;100.00
7075;BME280;3578;51.568;6.932;2022-12-17T03:50:14;52763.13;;;-144.14;100.00
7075;BME280;3578;51.568;6.932;2022-12-17T03:53:00;52705.00;;;-144.14;100.00
7075;BME280;3578;51.568;6.932;2022-12-17T03:55:45;52701.00;;;-144.14;100.00
7075;BME280;3578;51.568;6.932;2022-12-17T03:58:30;52697.00;;;-144.14;100.00
7075;BME280;3578;51.568;6.932;2022-12-17T04:01:14;52719.03;;;-144.14;100.00
7075;BME280;3578;51.568;6.932;2022-12-17T04:03:59;52743.06;;;-144.14;100.00
7075;BME280;3578;51.568;6.932;2022-12-17T04:06:45;52745.06;;;-144.14;100.00
7075;BME280;3578;51.568;6.932;2022-12-17T04:09:30;52729.03;;;-144.14;100.00
7075;BME280;3578;51.568;6.932;2022-12-17T04:12:15;52721.03;;;-144.14;100.00
7075;BME280;3578;51.568;6.932;2022-12-17T04:15:00;52727.03;;;-144.14;100.00
7075;BME280;3578;51.568;6.932;2022-12-17T04:17:44;52739.06;;;-144.14;100.00
7075;BME280;3578;51.568;6.932;2022-12-17T04:20:29;52747.09;;;-144.14;100.00
7075;BME280;3578;51.568;6.932;2022-12-17T04:23:15;52717.03;;;-144.14;100.00
7075;BME280;3578;51.568;6.932;2022-12-17T04:25:59;52775.13;;;-144.14;100.00
7075;BME280;3578;51.568;6.932;2022-12-17T04:28:44;52739.06;;;-144.14;100.00
7075;BME280;3578;51.568;6.932;2022-12-17T04:31:37;52711.00;;;-144.14;100.00
7075;BME280;3578;51.568;6.932;2022-12-17T04:34:21;52711.00;;;-144.14;100.00
7075;BME280;3578;51.568;6.932;2022-12-17T04:37:06;52773.13;;;-144.14;100.00
7075;BME280;3578;51.568;6.932;2022-12-17T04:39:52;52741.06;;;-144.14;100.00
7075;BME280;3578;51.568;6.932;2022-12-17T04:42:37;52725.03;;;-144.14;100.00
7075;BME280;3578;51.568;6.932;2022-12-17T04:45:33;52733.06;;;-144.14;100.00
7075;BME280;3578;51.568;6.932;2022-12-17T04:48:17;52733.06;;;-144.14;100.00
7075;BME280;3578;51.568;6.932;2022-12-17T04:50:58;52753.09;;;-144.14;100.00
7075;BME280;3578;51.568;6.932;2022-12-17T04:53:42;52713.00;;;-144.14;100.00
7075;BME280;3578;51.568;6.932;2022-12-17T04:56:28;52751.09;;;-144.14;100.00
7075;BME280;3578;51.568;6.932;2022-12-17T04:59:15;52729.03;;;-144.14;100.00
7075;BME280;3578;51.568;6.932;2022-12-17T05:01:59;52713.00;;;-144.14;100.00
7075;BME280;3578;51.568;6.932;2022-12-17T05:04:44;52727.03;;;-144.14;100.00
7075;BME280;3578;51.568;6.932;2022-12-17T05:07:29;52723.03;;;-144.14;100.00
7075;BME280;3578;51.568;6.932;2022-12-17T05:10:13;52733.06;;;-144.14;100.00
7075;BME280;3578;51.568;6.932;2022-12-17T05:13:00;52729.03;;;-144.14;100.00
7075;BME280;3578;51.568;6.932;2022-12-17T05:15:45;52715.03;;;-144.14;100.00
7075;BME280;3578;51.568;6.932;2022-12-17T05:18:30;52743.06;;;-144.14;100.00
7075;BME280;3578;51.568;6.932;2022-12-17T05:21:14;52741.06;;;-144.14;100.00
7075;BME280;3578;51.568;6.932;2022-12-17T05:23:59;52725.03;;;-144.14;100.00
7075;BME280;3578;51.568;6.932;2022-12-17T05:26:43;52729.03;;;-144.14;100.00
7075;BME280;3578;51.568;6.932;2022-12-17T05:29:29;52705.00;;;-144.14;100.00
7075;BME280;3578;51.568;6.932;2022-12-17T05:32:14;52727.03;;;-144.14;100.00
7075;BME280;3578;51.568;6.932;2022-12-17T05:34:58;52694.97;;;-144.14;100.00
7075;BME280;3578;51.568;6.932;2022-12-17T05:37:43;52719.03;;;-144.14;100.00
7075;BME280;3578;51.568;6.932;2022-12-17T05:40:27;52749.09;;;-144.14;100.00
7075;BME280;3578;51.568;6.932;2022-12-17T05:43:12;52717.03;;;-144.14;100.00
7075;BME280;3578;51.568;6.932;2022-12-17T05:45:58;52739.06;;;-144.14;100.00
7075;BME280;3578;51.568;6.932;2022-12-17T05:48:43;52690.97;;;-144.14;100.00
7075;BME280;3578;51.568;6.932;2022-12-17T05:51:27;52727.03;;;-144.14;100.00
7075;BME280;3578;51.568;6.932;2022-12-17T05:54:12;52707.00;;;-144.14;100.00
7075;BME280;3578;51.568;6.932;2022-12-17T05:56:56;52727.03;;;-144.14;100.00
7075;BME280;3578;51.568;6.932;2022-12-17T05:59:41;52731.06;;;-144.14;100.00
7075;BME280;3578;51.568;6.932;2022-12-17T06:02:27;52755.09;;;-144.14;100.00
7075;BME280;3578;51.568;6.932;2022-12-17T06:05:11;52757.09;;;-144.14;100.00
7075;BME280;3578;51.568;6.932;2022-12-17T06:08:02;52745.06;;;-144.14;100.00
7075;BME280;3578;51.568;6.932;2022-12-17T06:10:46;52729.03;;;-144.14;100.00
7075;BME280;3578;51.568;6.932;2022-12-17T06:13:46;52755.09;;;-144.14;100.00
7075;BME280;3578;51.568;6.932;2022-12-17T06:16:30;52785.16;;;-144.14;99.66
7075;BME280;3578;51.568;6.932;2022-12-17T06:19:16;52789.16;;;-144.14;99.63
7075;BME280;3578;51.568;6.932;2022-12-17T06:22:01;52749.09;;;-144.14;100.00
7075;BME280;3578;51.568;6.932;2022-12-17T06:24:45;52775.13;;;-144.14;99.92
7075;BME280;3578;51.568;6.932;2022-12-17T06:27:42;52749.09;;;-144.14;99.87
7075;BME280;3578;51.568;6.932;2022-12-17T06:30:27;52741.06;;;-144.14;99.88
7075;BME280;3578;51.568;6.932;2022-12-17T06:33:11;52727.03;;;-144.14;100.00
7075;BME280;3578;51.568;6.932;2022-12-17T06:36:12;52777.13;;;-144.14;100.00
7075;BME280;3578;51.568;6.932;2022-12-17T06:38:56;52761.09;;;-144.14;100.00
7075;BME280;3578;51.568;6.932;2022-12-17T06:41:55;52765.13;;;-144.14;100.00
7075;BME280;3578;51.568;6.932;2022-12-17T06:44:40;52791.16;;;-144.14;99.69
7075;BME280;3578;51.568;6.932;2022-12-17T06:47:25;52773.13;;;-144.14;99.42
7075;BME280;3578;51.568;6.932;2022-12-17T06:50:10;52773.13;;;-144.14;99.30
7075;BME280;3578;51.568;6.932;2022-12-17T06:53:01;52789.16;;;-144.14;99.91
7075;BME280;3578;51.568;6.932;2022-12-17T06:55:45;52785.16;;;-144.14;99.53
7075;BME280;3578;51.568;6.932;2022-12-17T06:58:30;52789.16;;;-144.14;99.63
7075;BME280;3578;51.568;6.932;2022-12-17T07:01:14;52777.13;;;-144.14;99.66
7075;BME280;3578;51.568;6.932;2022-12-17T07:03:59;52805.19;;;-144.14;98.88
7075;BME280;3578;51.568;6.932;2022-12-17T07:06:44;52819.22;;;-144.14;97.85
7075;BME280;3578;51.568;6.932;2022-12-17T07:09:29;52807.19;;;-144.14;98.02
7075;BME280;3578;51.568;6.932;2022-12-17T07:12:14;52793.16;;;-144.14;98.66
7075;BME280;3578;51.568;6.932;2022-12-17T07:14:59;52817.22;;;-144.14;98.58
7075;BME280;3578;51.568;6.932;2022-12-17T07:17:54;52833.25;;;-144.14;98.59
7075;BME280;3578;51.568;6.932;2022-12-17T07:20:39;52805.19;;;-144.14;98.87
7075;BME280;3578;51.568;6.932;2022-12-17T07:23:23;52783.16;;;-144.14;98.62
7075;BME280;3578;51.568;6.932;2022-12-17T07:26:18;52819.22;;;-144.14;98.48
7075;BME280;3578;51.568;6.932;2022-12-17T07:29:03;52837.25;;;-144.14;98.42
7075;BME280;3578;51.568;6.932;2022-12-17T07:31:48;52773.13;;;-144.14;99.42
7075;BME280;3578;51.568;6.932;2022-12-17T07:34:32;52761.09;;;-144.14;99.87
7075;BME280;3578;51.568;6.932;2022-12-17T07:37:17;52825.22;;;-144.14;98.98
7075;BME280;3578;51.568;6.932;2022-12-17T07:40:02;52811.19;;;-144.14;98.48
7075;BME280;3578;51.568;6.932;2022-12-17T07:42:48;52789.16;;;-144.14;98.51
7075;BME280;3578;51.568;6.932;2022-12-17T07:45:32;52803.19;;;-144.14;98.71
7075;BME280;3578;51.568;6.932;2022-12-17T07:48:17;52781.16;;;-144.14;99.25
7075;BME280;3578;51.568;6.932;2022-12-17T07:51:01;52795.16;;;-144.14;98.96
7075;BME280;3578;51.568;6.932;2022-12-17T07:53:57;52751.09;;;-144.14;99.14
7075;BME280;3578;51.568;6.932;2022-12-17T07:56:42;52797.19;;;-144.14;99.13
7075;BME280;3578;51.568;6.932;2022-12-17T07:59:30;52807.19;;;-144.14;99.79
7075;BME280;3578;51.568;6.932;2022-12-17T08:02:15;52787.16;;;-144.14;99.79
7075;BME280;3578;51.568;6.932;2022-12-17T08:04:59;52785.16;;;-144.14;99.35
7075;BME280;3578;51.568;6.932;2022-12-17T08:07:44;52789.16;;;-144.14;99.85
7075;BME280;3578;51.568;6.932;2022-12-17T08:10:29;52811.19;;;-144.14;99.56
7075;BME280;3578;51.568;6.932;2022-12-17T08:13:19;52837.25;;;-144.14;98.69
7075;BME280;3578;51.568;6.932;2022-12-17T08:16:05;52785.16;;;-144.14;98.34
7075;BME280;3578;51.568;6.932;2022-12-17T08:18:50;52797.19;;;-144.14;98.37
7075;BME280;3578;51.568;6.932;2022-12-17T08:21:34;52801.19;;;-144.14;98.50
7075;BME280;3578;51.568;6.932;2022-12-17T08:24:19;52809.19;;;-144.14;99.12
7075;BME280;3578;51.568;6.932;2022-12-17T08:27:04;52789.16;;;-144.14;99.44
7075;BME280;3578;51.568;6.932;2022-12-17T08:29:48;52793.16;;;-144.14;99.57
7075;BME280;3578;51.568;6.932;2022-12-17T08:32:33;52783.16;;;-144.14;99.50
7075;BME280;3578;51.568;6.932;2022-12-17T08:35:18;52761.09;;;-144.14;98.93
7075;BME280;3578;51.568;6.932;2022-12-17T08:38:04;52821.22;;;-144.14;99.13
7075;BME280;3578;51.568;6.932;2022-12-17T08:40:49;52795.16;;;-144.14;98.47
7075;BME280;3578;51.568;6.932;2022-12-17T08:43:33;52831.25;;;-144.14;98.64
7075;BME280;3578;51.568;6.932;2022-12-17T08:46:18;52805.19;;;-144.14;98.51
7075;BME280;3578;51.568;6.932;2022-12-17T08:49:04;52809.19;;;-144.14;98.52
7075;BME280;3578;51.568;6.932;2022-12-17T08:51:48;52825.22;;;-144.14;97.86
7075;BME280;3578;51.568;6.932;2022-12-17T08:54:33;52809.19;;;-144.14;97.34
7075;BME280;3578;51.568;6.932;2022-12-17T08:57:17;52835.25;;;-144.14;97.49
7075;BME280;3578;51.568;6.932;2022-12-17T09:00:03;52807.19;;;-144.14;98.75
7075;BME280;3578;51.568;6.932;2022-12-17T09:02:48;52865.31;;;-144.14;98.67
7075;BME280;3578;51.568;6.932;2022-12-17T09:05:34;52817.22;;;-144.14;98.33
7075;BME280;3578;51.568;6.932;2022-12-17T09:08:18;52863.31;;;-144.14;97.14
7075;BME280;3578;51.568;6.932;2022-12-17T09:11:03;52879.34;;;-144.14;96.00
7075;BME280;3578;51.568;6.932;2022-12-17T09:13:47;52867.31;;;-144.14;96.56
7075;BME280;3578;51.568;6.932;2022-12-17T09:16:32;52839.25;;;-144.14;97.27
7075;BME280;3578;51.568;6.932;2022-12-17T09:19:17;52837.25;;;-144.14;96.78
7075;BME280;3578;51.568;6.932;2022-12-17T09:22:03;52837.25;;;-144.14;96.25
7075;BME280;3578;51.568;6.932;2022-12-17T09:24:47;52837.25;;;-144.14;97.61
7075;BME280;3578;51.568;6.932;2022-12-17T09:27:32;52833.25;;;-144.14;97.21
7075;BME280;3578;51.568;6.932;2022-12-17T09:30:17;52849.28;;;-144.14;96.38
7075;BME280;3578;51.568;6.932;2022-12-17T09:33:01;52845.28;;;-144.14;96.50
7075;BME280;3578;51.568;6.932;2022-12-17T09:35:45;52847.28;;;-144.14;96.98
7075;BME280;3578;51.568;6.932;2022-12-17T09:38:31;52881.34;;;-144.14;95.05
7075;BME280;3578;51.568;6.932;2022-12-17T09:41:24;52839.25;;;-144.14;96.09
7075;BME280;3578;51.568;6.932;2022-12-17T09:44:17;52889.34;;;-144.14;95.39
7075;BME280;3578;51.568;6.932;2022-12-17T09:47:16;52859.28;;;-144.14;95.64
7075;BME280;3578;51.568;6.932;2022-12-17T09:50:16;52849.28;;;-144.14;96.82
7075;BME280;3578;51.568;6.932;2022-12-17T09:53:02;52845.28;;;-144.14;97.25
7075;BME280;3578;51.568;6.932;2022-12-17T09:55:53;52833.25;;;-144.14;96.93
7075;BME280;3578;51.568;6.932;2022-12-17T09:58:40;52863.31;;;-144.14;96.11
7075;BME280;3578;51.568;6.932;2022-12-17T10:01:33;52865.31;;;-144.14;96.51
7075;BME280;3578;51.568;6.932;2022-12-17T10:04:19;52857.28;;;-144.14;94.80
7075;BME280;3578;51.568;6.932;2022-12-17T10:07:13;52901.38;;;-144.14;95.32
7075;BME280;3578;51.568;6.932;2022-12-17T10:10:13;52871.31;;;-144.14;95.83
7075;BME280;3578;51.568;6.932;2022-12-17T10:13:00;52877.34;;;-144.14;94.59
7075;BME280;3578;51.568;6.932;2022-12-17T10:15:44;52861.31;;;-144.14;95.32
7075;BME280;3578;51.568;6.932;2022-12-17T10:18:30;52855.28;;;-144.14;95.67
7075;BME280;3578;51.568;6.932;2022-12-17T10:21:17;52877.34;;;-144.14;95.08
7075;BME280;3578;51.568;6.932;2022-12-17T10:24:06;52895.38;;;-144.14;94.43
7075;BME280;3578;51.568;6.932;2022-12-17T10:26:51;52905.38;;;-144.14;94.44
7075;BME280;3578;51.568;6.932;2022-12-17T10:29:39;52857.28;;;-144.14;94.48
7075;BME280;3578;51.568;6.932;2022-12-17T10:32:25;52889.34;;;-144.14;94.13
7075;BME280;3578;51.568;6.932;2022-12-17T10:35:18;52881.34;;;-144.14;93.88
7075;BME280;3578;51.568;6.932;2022-12-17T10:38:11;52865.31;;;-144.14;93.82
7075;BME280;3578;51.568;6.932;2022-12-17T10:40:56;52889.34;;;-144.14;93.57
7075;BME280;3578;51.568;6.932;2022-12-17T10:43:42;52909.41;;;-144.14;93.61
7075;BME280;3578;51.568;6.932;2022-12-17T10:46:29;52909.41;;;-144.14;93.44
7075;BME280;3578;51.568;6.932;2022-12-17T10:49:17;52913.41;;;-144.14;93.53
7075;BME280;3578;51.568;6.932;2022-12-17T10:52:06;52877.34;;;-144.14;94.10
7075;BME280;3578;51.568;6.932;2022-12-17T10:55:03;52923.41;;;-144.14;94.17
7075;BME280;3578;51.568;6.932;2022-12-17T10:57:51;52859.28;;;-144.14;95.40
7075;BME280;3578;51.568;6.932;2022-12-17T11:00:38;52901.38;;;-144.14;92.56
7075;BME280;3578;51.568;6.932;2022-12-17T11:03:31;52937.44;;;-144.14;92.46
7075;BME280;3578;51.568;6.932;2022-12-17T11:06:23;52941.44;;;-144.14;92.91
7075;BME280;3578;51.568;6.932;2022-12-17T11:09:31;52875.31;;;-144.14;94.92
7075;BME280;3578;51.568;6.932;2022-12-17T11:12:24;52925.44;;;-144.14;93.90
7075;BME280;3578;51.568;6.932;2022-12-17T11:15:30;52897.38;;;-144.14;92.69
7075;BME280;3578;51.568;6.932;2022-12-17T11:18:19;52915.41;;;-144.14;94.11
7075;BME280;3578;51.568;6.932;2022-12-17T11:21:10;52903.38;;;-144.14;95.40
7075;BME280;3578;51.568;6.932;2022-12-17T11:23:56;52889.34;;;-144.14;95.89
7075;BME280;3578;51.568;6.932;2022-12-17T11:26:45;52877.34;;;-144.14;95.15
7075;BME280;3578;51.568;6.932;2022-12-17T11:29:33;52863.31;;;-144.14;95.57
7075;BME280;3578;51.568;6.932;2022-12-17T11:32:37;52873.31;;;-144.14;96.21
7075;BME280;3578;51.568;6.932;2022-12-17T11:35:32;52915.41;;;-144.14;94.75
7075;BME280;3578;51.568;6.932;2022-12-17T11:38:33;52869.31;;;-144.14;94.16
7075;BME280;3578;51.568;6.932;2022-12-17T11:41:33;52887.34;;;-144.14;95.37
7075;BME280;3578;51.568;6.932;2022-12-17T11:44:35;52893.38;;;-144.14;95.74
7075;BME280;3578;51.568;6.932;2022-12-17T11:47:32;52907.38;;;-144.14;94.70
7075;BME280;3578;51.568;6.932;2022-12-17T11:50:27;52885.34;;;-144.14;94.50
7075;BME280;3578;51.568;6.932;2022-12-17T11:53:35;52893.38;;;-144.14;94.75
7075;BME280;3578;51.568;6.932;2022-12-17T11:56:26;52893.38;;;-144.14;94.06
7075;BME280;3578;51.568;6.932;2022-12-17T11:59:25;52913.41;;;-144.14;93.62
7075;BME280;3578;51.568;6.932;2022-12-17T12:02:28;52885.34;;;-144.14;94.80
7075;BME280;3578;51.568;6.932;2022-12-17T12:05:26;52907.38;;;-144.14;93.25
7075;BME280;3578;51.568;6.932;2022-12-17T12:08:27;52897.38;;;-144.14;94.49
7075;BME280;3578;51.568;6.932;2022-12-17T12:11:24;52933.44;;;-144.14;94.02
7075;BME280;3578;51.568;6.932;2022-12-17T12:14:27;52913.41;;;-144.14;94.90
7075;BME280;3578;51.568;6.932;2022-12-17T12:17:31;52921.41;;;-144.14;92.51
7075;BME280;3578;51.568;6.932;2022-12-17T12:20:33;52903.38;;;-144.14;91.85
7075;BME280;3578;51.568;6.932;2022-12-17T12:23:36;52949.47;;;-144.14;91.42
7075;BME280;3578;51.568;6.932;2022-12-17T12:26:29;52899.38;;;-144.14;92.53
7075;BME280;3578;51.568;6.932;2022-12-17T12:29:37;52911.41;;;-144.14;93.88
7075;BME280;3578;51.568;6.932;2022-12-17T12:32:33;52869.31;;;-144.14;93.53
7075;BME280;3578;51.568;6.932;2022-12-17T12:35:24;52885.34;;;-144.14;92.67
7075;BME280;3578;51.568;6.932;2022-12-17T12:38:20;52893.38;;;-144.14;92.63
7075;BME280;3578;51.568;6.932;2022-12-17T12:41:17;52901.38;;;-144.14;92.77
7075;BME280;3578;51.568;6.932;2022-12-17T12:44:18;52853.28;;;-144.14;94.84
7075;BME280;3578;51.568;6.932;2022-12-17T12:47:13;52875.31;;;-144.14;93.31
7075;BME280;3578;51.568;6.932;2022-12-17T12:50:11;52877.34;;;-144.14;93.92
7075;BME280;3578;51.568;6.932;2022-12-17T12:52:59;52903.38;;;-144.14;93.90
7075;BME280;3578;51.568;6.932;2022-12-17T12:55:44;52881.34;;;-144.14;94.33
7075;BME280;3578;51.568;6.932;2022-12-17T12:58:32;52913.41;;;-144.14;93.76
7075;BME280;3578;51.568;6.932;2022-12-17T13:01:17;52885.34;;;-144.14;93.69
7075;BME280;3578;51.568;6.932;2022-12-17T13:04:28;52869.31;;;-144.14;93.15
7075;BME280;3578;51.568;6.932;2022-12-17T13:07:23;52885.34;;;-144.14;93.41
7075;BME280;3578;51.568;6.932;2022-12-17T13:09:53;52873.31;;;-144.14;93.36
7075;BME280;3578;51.568;6.932;2022-12-17T13:12:31;52873.31;;;-144.14;92.97
7075;BME280;3578;51.568;6.932;2022-12-17T13:15:22;52919.41;;;-144.14;93.17
7075;BME280;3578;51.568;6.932;2022-12-17T13:18:15;52905.38;;;-144.14;92.49
7075;BME280;3578;51.568;6.932;2022-12-17T13:20:57;52919.41;;;-144.14;92.23
7075;BME280;3578;51.568;6.932;2022-12-17T13:23:30;52881.34;;;-144.14;92.70
7075;BME280;3578;51.568;6.932;2022-12-17T13:26:19;52875.31;;;-144.14;92.84
7075;BME280;3578;51.568;6.932;2022-12-17T13:29:09;52885.34;;;-144.14;92.98
7075;BME280;3578;51.568;6.932;2022-12-17T13:31:51;52865.31;;;-144.14;92.52
7075;BME280;3578;51.568;6.932;2022-12-17T13:34:28;52889.34;;;-144.14;93.57
7075;BME280;3578;51.568;6.932;2022-12-17T13:37:04;52903.38;;;-144.14;92.11
7075;BME280;3578;51.568;6.932;2022-12-17T13:39:39;52907.38;;;-144.14;91.23
7075;BME280;3578;51.568;6.932;2022-12-17T13:42:18;52873.31;;;-144.14;91.86
7075;BME280;3578;51.568;6.932;2022-12-17T13:44:48;52873.31;;;-144.14;91.73
7075;BME280;3578;51.568;6.932;2022-12-17T13:47:24;52879.34;;;-144.14;92.81
7075;BME280;3578;51.568;6.932;2022-12-17T13:49:54;52857.28;;;-144.14;93.85
7075;BME280;3578;51.568;6.932;2022-12-17T13:52:24;52851.28;;;-144.14;94.63
7075;BME280;3578;51.568;6.932;2022-12-17T13:54:52;52847.28;;;-144.14;95.47
7075;BME280;3578;51.568;6.932;2022-12-17T13:57:21;52847.28;;;-144.14;95.87
7075;BME280;3578;51.568;6.932;2022-12-17T13:59:50;52825.22;;;-144.14;94.84
7075;BME280;3578;51.568;6.932;2022-12-17T14:02:27;52849.28;;;-144.14;93.44
7075;BME280;3578;51.568;6.932;2022-12-17T14:04:57;52857.28;;;-144.14;93.66
7075;BME280;3578;51.568;6.932;2022-12-17T14:07:27;52865.31;;;-144.14;93.40
7075;BME280;3578;51.568;6.932;2022-12-17T14:09:55;52871.31;;;-144.14;93.13
7075;BME280;3578;51.568;6.932;2022-12-17T14:12:24;52845.28;;;-144.14;93.00
7075;BME280;3578;51.568;6.932;2022-12-17T14:14:54;52859.28;;;-144.14;93.17
7075;BME280;3578;51.568;6.932;2022-12-17T14:17:25;52839.25;;;-144.14;93.74
7075;BME280;3578;51.568;6.932;2022-12-17T14:19:57;52837.25;;;-144.14;94.29
7075;BME280;3578;51.568;6.932;2022-12-17T14:22:32;52819.22;;;-144.14;95.24
7075;BME280;3578;51.568;6.932;2022-12-17T14:25:02;52841.25;;;-144.14;96.76
7075;BME280;3578;51.568;6.932;2022-12-17T14:27:32;52775.13;;;-144.14;97.10
7075;BME280;3578;51.568;6.932;2022-12-17T14:30:01;52819.22;;;-144.14;96.01
7075;BME280;3578;51.568;6.932;2022-12-17T14:32:35;52813.22;;;-144.14;95.67
7075;BME280;3578;51.568;6.932;2022-12-17T14:35:03;52817.22;;;-144.14;95.95
7075;BME280;3578;51.568;6.932;2022-12-17T14:37:30;52761.09;;;-144.14;96.57